Latest Weather Observations for Ballera

IDQ60801

Issued at 7:32 am EST Tuesday 7 July 2020 (issued every 10 minutes, with the page automatically refreshed every 10 minutes)

About weather observations | Map of weather stations | Latest weather observations for QLD | Other Formats
Station Details ID: 045009 Name: BALLERA GAS FIELD Lat: -27.40 Lon: 141.81 Height: 114.5 m
Data from the previous 72 hours. | See also: Recent months at Ballera
Date/Time
EST
Temp
°C
App
Temp
°C
Dew
Point
°C
Rel
Hum
%
Delta-T
°C
Wind Press
QNH
hPa
Press
MSL
hPa
Rain since
9am
mm
Dir  Spd
km/h
Gust
km/h
Spd
kts
Gust
kts
07/07:30am 4.3 -1.0 -0.3 72 1.7 SE 17 20 9 11 1027.3 1027.3 0.0
07/07:00am 4.3 -1.3 -0.3 72 1.7 SE 19 20 10 11 1026.9 1026.9 0.0
07/06:30am 4.0 -1.3 -0.6 72 1.7 SE 17 19 9 10 1026.8 1026.8 0.0
07/06:00am 4.2 -1.1 -0.4 72 1.7 SE 17 19 9 10 1026.4 1026.4 0.0
07/05:30am 4.2 -1.1 -0.4 72 1.7 SE 17 17 9 9 1026.1 1026.1 0.0
07/05:00am 4.5 -0.8 -0.3 71 1.8 SE 17 19 9 10 1026.0 1026.0 0.0
07/04:30am 4.9 -0.3 -0.1 70 1.9 SE 17 19 9 10 1025.9 1025.9 0.0
07/04:00am 5.2 0.0 0.0 69 2.0 SE 17 20 9 11 1026.2 1026.2 0.0
07/03:30am 5.6 0.0 0.2 68 2.1 SE 19 20 10 11 1026.3 1026.3 0.0
07/03:00am 5.5 -0.1 0.1 68 2.1 SE 19 20 10 11 1026.5 1026.5 0.0
07/02:30am 6.0 0.5 0.3 67 2.2 SSE 19 22 10 12 1026.6 1026.6 0.0
07/02:00am 6.4 0.9 0.5 66 2.3 SSE 19 20 10 11 1026.9 1026.9 0.0
07/01:30am 6.7 1.2 0.6 65 2.4 SE 19 20 10 11 1027.0 1027.0 0.0
07/01:00am 7.0 1.3 0.7 64 2.5 SE 20 22 11 12 1027.1 1027.1 0.0
07/12:30am 7.5 1.8 0.7 62 2.7 SE 20 22 11 12 1027.4 1027.4 0.0
07/12:00am 7.6 2.1 0.6 61 2.8 SE 19 22 10 12 1027.8 1027.8 0.0
 
Date/Time
EST
Temp
°C
App
Temp
°C
Dew
Point
°C
Rel
Hum
%
Delta-T
°C
Wind Press
QNH
hPa
Press
MSL
hPa
Rain since
9am
mm
Dir  Spd
km/h
Gust
km/h
Spd
kts
Gust
kts
06/11:30pm 8.1 2.7 1.0 61 2.9 SSE 19 20 10 11 1028.0 1028.0 0.0
06/11:00pm 8.3 2.8 0.8 59 3.0 SE 19 22 10 12 1028.1 1028.1 0.0
06/10:30pm 8.9 3.4 0.9 57 3.3 SSE 19 22 10 12 1028.1 1028.1 0.0
06/10:00pm 9.5 3.5 1.2 56 3.4 SSE 22 26 12 14 1027.9 1027.9 0.0
06/09:30pm 9.9 3.5 1.0 54 3.7 SE 24 30 13 16 1027.8 1027.8 0.0
06/09:00pm 10.1 3.7 1.2 54 3.7 SE 24 30 13 16 1027.6 1027.6 0.0
06/08:30pm 10.2 4.6 1.1 53 3.8 SSE 20 24 11 13 1027.7 1027.7 0.0
06/08:00pm 11.4 5.9 1.6 51 4.1 SSE 20 24 11 13 1027.7 1027.7 0.0
06/07:30pm 12.1 6.6 1.7 49 4.5 SSE 20 24 11 13 1027.7 1027.7 0.0
06/07:00pm 12.6 7.7 1.9 48 4.6 SSE 17 19 9 10 1027.2 1027.2 0.0
06/06:30pm 13.8 8.6 2.4 46 5.0 SE 19 20 10 11 1026.7 1026.7 0.0
06/06:00pm 14.8 9.1 2.7 44 5.4 SE 22 28 12 15 1026.4 1026.4 0.0
06/05:30pm 15.6 9.8 2.4 41 5.9 SE 22 26 12 14 1026.1 1026.1 0.0
06/05:00pm 16.2 10.8 2.2 39 6.3 SE 20 26 11 14 1025.9 1025.9 0.0
06/04:30pm 16.6 10.7 1.5 36 6.7 SE 22 30 12 16 1025.8 1025.8 0.0
06/04:00pm 16.7 11.2 1.6 36 6.7 SE 20 30 11 16 1025.9 1025.9 0.0
06/03:30pm 16.7 11.2 1.6 36 6.7 SE 20 30 11 16 1025.8 1025.8 0.0
06/03:00pm 16.4 10.8 1.3 36 6.6 SSE 20 32 11 17 1026.0 1026.0 0.0
06/02:30pm 16.9 11.4 1.8 36 6.8 SE 20 33 11 18 1026.2 1026.2 0.0
06/02:00pm 16.2 10.6 1.5 37 6.5 ESE 20 28 11 15 1026.4 1026.4 0.0
06/01:30pm 16.5 11.2 2.9 40 6.2 ESE 20 33 11 18 1026.6 1026.6 0.0
06/01:00pm 15.2 9.7 2.1 41 5.8 SE 20 28 11 15 1027.2 1027.2 0.0
06/12:30pm 15.0 9.2 2.5 43 5.6 ESE 22 30 12 16 1027.9 1027.9 0.0
06/12:00pm 14.8 8.7 3.0 45 5.3 ESE 24 33 13 18 1028.5 1028.5 0.0
06/11:30am 14.4 8.4 3.5 48 5.0 ESE 24 35 13 19 1028.8 1028.8 0.0
06/11:00am 13.8 6.8 3.9 51 4.5 ESE 30 37 16 20 1029.1 1029.1 0.0
06/10:30am 13.2 6.1 3.8 53 4.3 ESE 30 35 16 19 1029.3 1029.3 0.0
06/10:00am 11.7 6.2 4.0 59 3.4 ESE 22 28 12 15 1029.5 1029.5 0.0
06/09:30am 9.6 4.5 4.0 68 2.5 ESE 20 24 11 13 1029.3 1029.3 0.0
06/09:00am 8.2 3.6 3.9 74 1.9 ESE 17 20 9 11 1029.0 1029.0 0.0
06/08:30am 7.2 2.7 4.3 82 1.3 SE 17 19 9 10 1028.8 1028.8 0.0
06/08:00am 6.1 1.5 3.9 86 0.9 SE 17 19 9 10 1028.6 1028.6 0.0
06/07:30am 5.2 1.4 3.7 90 0.6 SE 13 17 7 9 1028.5 1028.5 0.0
06/07:00am 5.3 1.4 3.6 89 0.7 SE 13 15 7 8 1028.2 1028.2 0.0
06/06:30am 5.4 1.9 3.4 87 0.8 SE 11 13 6 7 1027.9 1027.9 0.0
06/06:00am 5.8 1.6 3.6 86 0.9 SE 15 17 8 9 1027.4 1027.4 0.0
06/05:30am 5.7 1.8 3.4 85 1.0 SE 13 17 7 9 1027.2 1027.2 0.0
06/05:00am 6.0 1.3 3.3 83 1.1 SE 17 20 9 11 1027.2 1027.2 0.0
06/04:30am 6.5 1.5 3.5 81 1.3 SE 19 24 10 13 1027.2 1027.2 0.0
06/04:00am 6.6 1.9 3.4 80 1.3 SE 17 20 9 11 1027.2 1027.2 0.0
06/03:30am 7.0 1.9 3.3 77 1.6 SSE 19 22 10 12 1027.2 1027.2 0.0
06/03:00am 7.3 2.0 3.0 74 1.8 SSE 20 22 11 12 1027.1 1027.1 0.0
06/02:30am 7.6 2.4 2.5 70 2.1 SSE 19 22 10 12 1027.0 1027.0 0.0
06/02:00am 8.0 2.6 2.7 69 2.2 SSE 20 22 11 12 1027.1 1027.1 0.0
06/01:30am 8.0 3.2 2.5 68 2.3 SSE 17 19 9 10 1027.2 1027.2 0.0
06/01:00am 8.3 3.5 2.5 67 2.4 SSE 17 19 9 10 1027.4 1027.4 0.0
06/12:30am 8.1 3.6 2.4 67 2.4 SSE 15 17 8 9 1027.5 1027.5 0.0
06/12:00am 8.0 3.5 2.0 66 2.5 SSE 15 17 8 9 1027.4 1027.4 0.0
 
Date/Time
EST
Temp
°C
App
Temp
°C
Dew
Point
°C
Rel
Hum
%
Delta-T
°C
Wind Press
QNH
hPa
Press
MSL
hPa
Rain since
9am
mm
Dir  Spd
km/h
Gust
km/h
Spd
kts
Gust
kts
05/11:30pm 8.1 3.6 1.9 65 2.6 SSE 15 17 8 9 1027.5 1027.5 0.0
05/11:00pm 8.2 3.6 1.8 64 2.6 SE 15 17 8 9 1027.4 1027.4 0.0
05/10:30pm 8.5 4.3 1.6 62 2.9 SE 13 15 7 8 1027.3 1027.3 0.0
05/10:00pm 9.2 4.7 1.9 60 3.0 SSE 15 17 8 9 1027.2 1027.2 0.0
05/09:30pm 9.3 5.1 1.7 59 3.2 SSE 13 15 7 8 1027.2 1027.2 0.0
05/09:00pm 9.9 5.3 1.8 57 3.4 SSE 15 17 8 9 1027.1 1027.1 0.0
05/08:30pm 10.7 5.8 2.0 55 3.7 SSE 17 20 9 11 1027.0 1027.0 0.0
05/08:00pm 11.4 6.2 2.2 53 3.9 SSE 19 20 10 11 1026.8 1026.8 0.0
05/07:30pm 12.0 6.8 2.2 51 4.2 SSE 19 22 10 12 1026.7 1026.7 0.0
05/07:00pm 12.6 7.7 2.2 49 4.5 SSE 17 20 9 11 1026.5 1026.5 0.0
05/06:30pm 13.3 8.4 2.2 47 4.9 SSE 17 19 9 10 1026.2 1026.2 0.0
05/06:00pm 14.4 8.5 2.0 43 5.4 SE 22 28 12 15 1026.0 1026.0 0.0
05/05:30pm 15.1 9.6 2.0 41 5.8 SE 20 24 11 13 1025.8 1025.8 0.0
05/05:00pm 15.5 10.0 2.0 40 6.0 SE 20 28 11 15 1025.8 1025.8 0.0
05/04:30pm 15.8 9.1 1.5 38 6.3 SSE 26 35 14 19 1025.8 1025.8 0.0
05/04:00pm 16.2 10.7 1.9 38 6.4 SSE 20 28 11 15 1025.7 1025.7 0.0
05/03:30pm 16.7 10.8 2.0 37 6.6 SE 22 32 12 17 1025.9 1025.9 0.0
05/03:00pm 16.2 9.9 1.5 37 6.5 SSE 24 35 13 19 1025.9 1025.9 0.0
05/02:30pm 16.4 11.1 1.7 37 6.6 SE 19 30 10 16 1025.9 1025.9 0.0
05/02:00pm 15.9 10.4 1.6 38 6.3 SE 20 28 11 15 1026.2 1026.2 0.0
05/01:30pm 15.6 10.2 1.4 38 6.2 SE 19 28 10 15 1026.4 1026.4 0.0
05/01:00pm 15.1 9.5 1.3 39 6.0 ESE 20 32 11 17 1027.1 1027.1 0.0
05/12:30pm 15.1 9.2 2.0 41 5.8 SE 22 32 12 17 1027.6 1027.6 0.0
05/12:00pm 14.6 8.8 2.2 43 5.5 ESE 22 30 12 16 1028.3 1028.3 0.0
05/11:30am 13.9 7.7 2.2 45 5.2 ESE 24 32 13 17 1028.9 1028.9 0.0
05/11:00am 13.1 7.3 2.1 47 4.8 ESE 22 28 12 15 1029.3 1029.3 0.0
05/10:30am 11.7 5.8 1.4 49 4.4 SE 22 30 12 16 1029.5 1029.5 0.0
05/10:00am 10.3 4.6 0.6 51 4.0 SE 20 24 11 13 1029.6 1029.6 0.0
05/09:30am 9.4 3.8 0.1 52 3.7 SE 19 20 10 11 1029.4 1029.4 0.0
05/09:00am 8.2 3.3 -0.3 55 3.3 SE 15 19 8 10 1029.1 1029.1 0.0
05/08:30am 6.3 1.7 -0.9 60 2.7 SE 13 17 7 9 1028.8 1028.8 0.0
05/08:00am 4.6 -0.1 -1.6 64 2.2 SE 13 13 7 7 1028.4 1028.4 0.0
05/07:30am 4.0 -0.7 -2.0 65 2.2 SE 13 15 7 8 1028.2 1028.2 0.0
05/07:00am 4.1 -0.3 -2.1 64 2.2 SSE 11 13 6 7 1027.9 1027.9 0.0
05/06:30am 4.6 0.3 -1.8 63 2.3 SSE 11 13 6 7 1027.7 1027.7 0.0
05/06:00am 5.5 0.5 -1.4 61 2.5 SSE 15 17 8 9 1027.5 1027.5 0.0
05/05:30am 5.6 0.2 -1.1 62 2.5 SSE 17 19 9 10 1027.1 1027.1 0.0
05/05:00am 5.6 0.2 -1.1 62 2.5 SSE 17 17 9 9 1027.2 1027.2 0.0
05/04:30am 5.8 1.2 -1.1 61 2.6 SSE 13 17 7 9 1027.3 1027.3 0.0
05/04:00am 6.4 1.8 -1.0 59 2.8 SSE 13 15 7 8 1027.7 1027.7 0.0
05/03:30am 6.6 1.7 -0.8 59 2.8 SSE 15 17 8 9 1027.7 1027.7 0.0
05/03:00am 6.8 1.8 -0.9 58 2.9 SSE 15 17 8 9 1027.6 1027.6 0.0
05/02:30am 7.1 2.2 -0.6 58 3.0 S 15 17 8 9 1027.8 1027.8 0.0
05/02:00am 6.9 2.0 -0.8 58 2.9 S 15 17 8 9 1028.0 1028.0 0.0
05/01:30am 7.1 1.8 -0.8 57 3.0 S 17 19 9 10 1027.9 1027.9 0.0
05/01:00am 7.5 2.6 -0.7 56 3.1 SSE 15 19 8 10 1027.8 1027.8 0.0
05/12:30am 7.4 2.4 -1.0 55 3.2 SSE 15 17 8 9 1027.8 1027.8 0.0
05/12:00am 7.7 2.3 -1.0 54 3.3 SSE 17 20 9 11 1028.0 1028.0 0.0
 
Date/Time
EST
Temp
°C
App
Temp
°C
Dew
Point
°C
Rel
Hum
%
Delta-T
°C
Wind Press
QNH
hPa
Press
MSL
hPa
Rain since
9am
mm
Dir  Spd
km/h
Gust
km/h
Spd
kts
Gust
kts
04/11:30pm 8.3 2.9 -1.0 52 3.6 SE 17 19 9 10 1028.2 1028.2 0.0
04/11:00pm 8.6 3.3 -0.9 51 3.7 SE 17 19 9 10 1028.4 1028.4 0.0
04/10:30pm 9.0 3.7 -0.9 50 3.9 SE 17 19 9 10 1028.6 1028.6 0.0
04/10:00pm 9.4 4.0 -1.0 48 4.0 SE 17 20 9 11 1028.7 1028.7 0.0
04/09:30pm 9.8 4.1 -1.0 47 4.3 SE 19 20 10 11 1028.8 1028.8 0.0
04/09:00pm 10.2 4.8 -1.2 45 4.5 SSE 17 20 9 11 1028.7 1028.7 0.0
04/08:30pm 10.5 5.1 -1.2 44 4.6 SSE 17 20 9 11 1028.4 1028.4 0.0
04/08:00pm 11.0 5.2 -1.7 41 4.9 SSE 19 22 10 12 1028.2 1028.2 0.0
04/07:30pm 11.7 5.7 -1.8 39 5.3 SSE 20 22 11 12 1027.7 1027.7 0.0
04/07:00pm 12.2 6.3 -2.0 37 5.6 S 19 24 10 13 1027.6 1027.6 0.0
04/06:30pm 13.0 7.0 -1.7 36 5.9 S 20 24 11 13 1027.4 1027.4 0.0
04/06:00pm 13.8 7.5 -1.0 36 6.0 S 22 28 12 15 1027.1 1027.1 0.0
04/05:30pm 14.7 8.0 -1.0 34 6.5 SSE 24 32 13 17 1026.8 1026.8 0.0
04/05:00pm 15.4 8.4 -0.8 33 6.7 SSE 26 32 14 17 1026.6 1026.6 0.0
04/04:30pm 16.0 9.4 -0.7 32 7.1 SSE 24 32 13 17 1026.5 1026.5 0.0
04/04:00pm 16.5 10.2 -0.7 31 7.3 SSE 22 35 12 19 1026.4 1026.4 0.0
04/03:30pm 16.7 10.5 -0.5 31 7.3 SSE 22 32 12 17 1026.6 1026.6 0.0
04/03:00pm 16.7 10.5 -0.5 31 7.3 SSE 22 32 12 17 1026.9 1026.9 0.0
04/02:30pm 16.4 10.6 -0.3 32 7.1 SSE 20 30 11 16 1027.0 1027.0 0.0
04/02:00pm 15.9 10.7 0.1 34 6.7 SE 17 26 9 14 1027.3 1027.3 0.0
04/01:30pm 15.7 10.0 0.7 36 6.5 SE 20 39 11 21 1027.6 1027.6 0.0
04/01:00pm 15.2 9.6 1.0 38 6.1 SSE 20 32 11 17 1027.7 1027.7 0.0
04/12:30pm 15.4 9.8 1.5 39 6.1 SE 20 28 11 15 1028.3 1028.3 0.0
04/12:00pm 15.3 9.5 2.5 42 5.7 SE 22 30 12 16 1028.8 1028.8 0.0
04/11:30am 14.2 7.8 3.1 47 5.0 SE 26 32 14 17 1029.3 1029.3 0.0
04/11:00am 13.5 7.2 3.6 51 4.5 SSE 26 33 14 18 1029.7 1029.7 0.0
04/10:30am 13.2 6.2 4.1 54 4.2 SE 30 35 16 19 1029.7 1029.7 0.0
04/10:00am 12.5 5.5 4.2 57 3.7 SE 30 39 16 21 1029.7 1029.7 0.0
04/09:30am 10.9 4.6 3.9 62 3.1 SSE 26 32 14 17 1029.6 1029.6 0.0
04/09:00am 9.9 3.2 3.4 64 2.8 SSE 28 32 15 17 1029.7 1029.7 0.0
04/08:30am 9.3 2.5 3.3 66 2.6 SSE 28 32 15 17 1028.9 1028.9 0.0
04/08:00am 8.1 2.4 2.6 68 2.3 S 22 26 12 14 1028.6 1028.6 0.0

Other formats

Comma delimited format used in spreadsheet applications
http://www.bom.gov.au/fwo/IDQ60801/IDQ60801.95487.axf

JavaScript Object Notation format (JSON) in row-major order
http://www.bom.gov.au/fwo/IDQ60801/IDQ60801.95487.json

Data quality

Most of these data are generated automatically and are frequently updated. Quality checks on data are not normally performed. It is possible for incorrect values to appear. Refer to information at About Latest Weather Observations and please check the disclaimer before using these data.